createdAt,value
2023-03-25T00:01:16.942Z,69.22
2023-03-25T00:04:04.602Z,69.70
2023-03-25T00:06:50.085Z,69.89
2023-03-25T00:09:35.661Z,69.89
2023-03-25T00:12:21.529Z,70.55
2023-03-25T00:15:08.432Z,70.22
2023-03-25T00:17:53.768Z,70.68
2023-03-25T00:20:40.990Z,70.55
2023-03-25T00:23:27.167Z,70.74
2023-03-25T00:26:13.026Z,70.67
2023-03-25T00:28:58.435Z,70.89
2023-03-25T00:31:44.124Z,70.63
2023-03-25T00:34:29.812Z,70.46
2023-03-25T00:37:21.814Z,70.54
2023-03-25T00:40:08.815Z,70.88
2023-03-25T00:42:55.076Z,70.94
2023-03-25T00:45:40.673Z,71.32
2023-03-25T00:48:27.346Z,71.07
2023-03-25T00:51:14.764Z,71.08
2023-03-25T00:54:00.674Z,70.90
2023-03-25T00:56:46.672Z,70.36
2023-03-25T00:59:32.249Z,70.57
2023-03-25T01:02:21.430Z,70.82
2023-03-25T01:05:09.306Z,70.86
2023-03-25T01:07:55.543Z,71.01
2023-03-25T01:10:41.331Z,71.02
2023-03-25T01:13:27.341Z,71.12
2023-03-25T01:16:13.412Z,71.37
2023-03-25T01:18:58.739Z,71.61
2023-03-25T01:21:45.437Z,71.65
2023-03-25T01:24:31.469Z,71.72
2023-03-25T01:27:17.325Z,71.50
2023-03-25T01:30:03.125Z,71.63
2023-03-25T01:32:48.540Z,71.70
2023-03-25T01:35:34.030Z,71.78
2023-03-25T01:38:20.179Z,71.93
2023-03-25T01:41:06.711Z,72.13
2023-03-25T01:44:13.743Z,72.37
2023-03-25T01:47:04.009Z,72.65
2023-03-25T01:49:50.240Z,72.91
2023-03-25T01:52:36.340Z,73.28
2023-03-25T01:55:24.123Z,73.20
2023-03-25T01:58:13.347Z,73.16
2023-03-25T02:00:58.916Z,73.47
2023-03-25T02:03:46.569Z,73.46
2023-03-25T02:06:39.330Z,73.57
2023-03-25T02:09:26.489Z,73.61
2023-03-25T02:12:11.885Z,74.21
2023-03-25T02:15:01.483Z,74.30
2023-03-25T02:18:08.998Z,74.28
2023-03-25T02:21:10.189Z,74.50
2023-03-25T02:24:35.179Z,74.37
2023-03-25T02:27:28.671Z,74.54
2023-03-25T02:30:44.277Z,74.54
2023-03-25T02:34:11.226Z,74.26
2023-03-25T02:37:15.629Z,74.40
2023-03-25T02:40:10.820Z,74.42
2023-03-25T02:43:05.642Z,74.35
2023-03-25T02:45:58.341Z,74.25
2023-03-25T02:48:49.643Z,74.38
2023-03-25T02:51:46.356Z,74.39
2023-03-25T02:54:33.976Z,74.72
2023-03-25T02:57:22.842Z,74.87
2023-03-25T03:00:15.740Z,75.11
2023-03-25T03:03:04.115Z,75.07
2023-03-25T03:05:55.542Z,75.22
2023-03-25T03:08:46.188Z,75.01
2023-03-25T03:11:40.387Z,75.01
2023-03-25T03:14:49.010Z,74.54
2023-03-25T03:17:46.281Z,74.31
2023-03-25T03:20:44.373Z,74.74
2023-03-25T03:23:38.630Z,74.49
2023-03-25T03:26:43.415Z,74.64
2023-03-25T03:29:34.780Z,74.91
2023-03-25T03:32:49.827Z,74.84
2023-03-25T03:35:40.654Z,74.93
2023-03-25T03:38:32.745Z,75.14
2023-03-25T03:41:19.851Z,75.18
2023-03-25T03:44:11.024Z,75.40
2023-03-25T03:47:14.040Z,75.46
2023-03-25T03:50:09.842Z,75.25
2023-03-25T03:53:08.786Z,75.45
2023-03-25T03:56:06.704Z,75.04
2023-03-25T03:58:58.508Z,75.23
2023-03-25T04:01:55.283Z,75.36
2023-03-25T04:04:42.737Z,75.81
2023-03-25T04:07:38.965Z,75.94
2023-03-25T04:10:39.370Z,75.96
2023-03-25T04:13:28.864Z,76.67
2023-03-25T04:16:14.578Z,76.38
2023-03-25T04:18:59.927Z,76.54
2023-03-25T04:21:47.972Z,76.66
2023-03-25T04:24:33.709Z,76.43
2023-03-25T04:27:19.917Z,76.70
2023-03-25T04:30:07.431Z,76.70
2023-03-25T04:32:53.372Z,76.65
2023-03-25T04:35:40.511Z,76.56
2023-03-25T04:38:27.108Z,76.59
2023-03-25T04:41:13.860Z,77.09
2023-03-25T04:43:59.743Z,77.34
2023-03-25T04:46:45.423Z,77.75
2023-03-25T04:49:30.665Z,77.97
2023-03-25T04:52:16.660Z,78.08
2023-03-25T04:55:02.588Z,78.01
2023-03-25T04:57:49.537Z,78.25
2023-03-25T05:00:35.134Z,78.12
2023-03-25T05:03:24.356Z,77.85
2023-03-25T05:06:11.350Z,78.03
2023-03-25T05:08:56.975Z,78.12
2023-03-25T05:11:43.412Z,78.87
2023-03-25T05:14:28.762Z,78.36
2023-03-25T05:17:13.975Z,78.50
2023-03-25T05:19:59.626Z,78.47
2023-03-25T05:22:45.838Z,78.08
2023-03-25T05:25:34.384Z,78.45
2023-03-25T05:28:20.067Z,78.49
2023-03-25T05:31:08.464Z,78.65
2023-03-25T05:33:54.990Z,79.08
2023-03-25T05:36:41.363Z,79.10
2023-03-25T05:39:26.933Z,79.09
2023-03-25T05:42:12.610Z,78.77
2023-03-25T05:44:57.952Z,79.12
2023-03-25T05:47:43.327Z,79.13
2023-03-25T05:50:29.529Z,79.02
2023-03-25T05:53:18.229Z,79.14
2023-03-25T05:56:04.314Z,78.81
2023-03-25T05:58:51.467Z,78.75
2023-03-25T06:01:41.962Z,78.83
2023-03-25T06:04:27.195Z,78.82
2023-03-25T06:07:20.195Z,78.78
2023-03-25T06:10:06.201Z,78.83
2023-03-25T06:12:53.152Z,78.69
2023-03-25T06:15:39.663Z,78.93
2023-03-25T06:18:25.805Z,79.11
2023-03-25T06:21:11.553Z,79.13
2023-03-25T06:23:59.656Z,78.99
2023-03-25T06:26:44.896Z,78.62
2023-03-25T06:29:30.467Z,78.80
2023-03-25T06:32:16.610Z,78.87
2023-03-25T06:35:03.777Z,78.82
2023-03-25T06:37:50.733Z,78.76
2023-03-25T06:40:47.897Z,78.75
2023-03-25T06:43:34.888Z,78.73
2023-03-25T06:46:26.969Z,78.83
2023-03-25T06:49:21.640Z,78.84
2023-03-25T06:52:08.079Z,78.76
2023-03-25T06:54:53.486Z,79.18
2023-03-25T06:57:39.004Z,79.06
2023-03-25T07:00:26.871Z,79.31
2023-03-25T07:03:12.385Z,79.45
2023-03-25T07:05:58.086Z,79.91
2023-03-25T07:08:44.010Z,80.06
2023-03-25T07:11:31.248Z,80.46
2023-03-25T07:14:17.326Z,80.15
2023-03-25T07:17:02.872Z,80.10
2023-03-25T07:19:48.290Z,80.19
2023-03-25T07:22:33.568Z,80.18
2023-03-25T07:25:19.187Z,80.42
2023-03-25T07:28:05.529Z,80.92
2023-03-25T07:30:54.375Z,80.86
2023-03-25T07:33:40.727Z,81.15
2023-03-25T07:36:27.067Z,81.76
2023-03-25T07:39:12.863Z,82.07
2023-03-25T07:41:58.584Z,82.04
2023-03-25T07:44:56.889Z,82.18
2023-03-25T07:47:42.762Z,82.20
2023-03-25T07:50:29.048Z,82.59
2023-03-25T07:53:14.783Z,82.40
2023-03-25T07:56:00.189Z,82.47
2023-03-25T07:58:46.467Z,82.64
2023-03-25T08:01:32.009Z,82.43
2023-03-25T08:04:17.580Z,82.41
2023-03-25T08:07:02.907Z,82.41
2023-03-25T08:09:48.695Z,82.42
2023-03-25T08:12:34.271Z,82.38
2023-03-25T08:15:25.725Z,82.37
2023-03-25T08:18:14.432Z,82.63
2023-03-25T08:21:03.038Z,82.48
2023-03-25T08:23:58.898Z,82.39
2023-03-25T08:26:46.800Z,82.65
2023-03-25T08:29:36.660Z,82.79
2023-03-25T08:32:25.649Z,82.84
2023-03-25T08:35:11.124Z,82.86
2023-03-25T08:37:57.670Z,83.19
2023-03-25T08:40:44.445Z,83.25
2023-03-25T08:43:35.354Z,83.24
2023-03-25T08:46:30.806Z,83.54
2023-03-25T08:49:21.256Z,83.48
2023-03-25T08:52:11.124Z,83.84
2023-03-25T08:55:02.260Z,84.06
2023-03-25T08:57:51.029Z,84.16
2023-03-25T09:00:38.959Z,84.51
2023-03-25T09:03:27.256Z,84.22
2023-03-25T09:06:12.489Z,84.48
2023-03-25T09:08:58.642Z,84.75
2023-03-25T09:11:44.945Z,84.54
2023-03-25T09:14:30.966Z,84.88
2023-03-25T09:17:16.932Z,84.60
2023-03-25T09:20:02.745Z,84.31
2023-03-25T09:22:48.491Z,83.42
2023-03-25T09:25:34.612Z,83.18
2023-03-25T09:28:20.447Z,83.28
2023-03-25T09:31:08.382Z,83.39
2023-03-25T09:33:54.465Z,83.71
2023-03-25T09:36:45.853Z,83.86
2023-03-25T09:39:31.511Z,83.82
2023-03-25T09:42:30.158Z,84.24
2023-03-25T09:45:40.273Z,83.93
2023-03-25T09:48:29.247Z,83.54
2023-03-25T09:51:32.874Z,83.29
2023-03-25T09:54:28.410Z,83.80
2023-03-25T09:57:21.389Z,84.06
2023-03-25T10:00:10.437Z,84.28
2023-03-25T10:03:09.173Z,83.83
2023-03-25T10:06:08.873Z,83.54
2023-03-25T10:09:13.644Z,83.95
2023-03-25T10:12:31.523Z,84.61
2023-03-25T10:15:24.056Z,84.74
2023-03-25T10:18:18.576Z,84.55
2023-03-25T10:21:27.680Z,84.95
2023-03-25T10:24:18.084Z,85.12
2023-03-25T10:27:15.773Z,85.04
2023-03-25T10:30:12.058Z,85.16
2023-03-25T10:33:04.931Z,85.50
2023-03-25T10:35:51.977Z,84.76
2023-03-25T10:38:39.236Z,85.28
2023-03-25T10:41:37.350Z,85.00
2023-03-25T10:44:27.435Z,84.93
2023-03-25T10:47:20.352Z,85.17
2023-03-25T10:50:09.423Z,84.67
2023-03-25T10:52:56.701Z,83.18
2023-03-25T10:55:42.508Z,83.19
2023-03-25T10:58:29.277Z,83.12
2023-03-25T11:01:19.173Z,83.07
2023-03-25T11:04:19.406Z,82.70
2023-03-25T11:07:17.784Z,83.48
2023-03-25T11:10:20.191Z,82.80
2023-03-25T11:13:13.094Z,83.04
2023-03-25T11:16:01.467Z,83.32
2023-03-25T11:18:48.329Z,83.42
2023-03-25T11:21:36.432Z,83.47
2023-03-25T11:24:27.776Z,83.66
2023-03-25T11:27:22.901Z,84.06
2023-03-25T11:30:25.477Z,83.86
2023-03-25T11:33:17.436Z,84.26
2023-03-25T11:36:18.780Z,84.52
2023-03-25T11:39:16.529Z,84.73
2023-03-25T11:42:23.075Z,84.68
2023-03-25T11:45:24.453Z,84.52
2023-03-25T11:48:15.906Z,83.83
2023-03-25T11:51:05.067Z,84.30
2023-03-25T11:53:57.457Z,84.18
2023-03-25T11:56:45.094Z,83.45
2023-03-25T11:59:43.106Z,83.11
2023-03-25T12:02:36.747Z,82.48
2023-03-25T12:05:22.233Z,82.93
2023-03-25T12:08:15.222Z,83.46
2023-03-25T12:11:11.250Z,83.24
2023-03-25T12:14:23.001Z,82.81
2023-03-25T12:17:44.126Z,83.09
2023-03-25T12:20:45.281Z,83.29
2023-03-25T12:24:02.081Z,83.99
2023-03-25T12:27:03.112Z,83.82
2023-03-25T12:30:19.249Z,83.95
2023-03-25T12:33:39.852Z,84.43
2023-03-25T12:37:02.862Z,84.63
2023-03-25T12:40:14.781Z,84.04
2023-03-25T12:43:05.757Z,83.80
2023-03-25T12:46:05.219Z,81.85
2023-03-25T12:48:59.209Z,81.98
2023-03-25T12:52:03.402Z,81.42
2023-03-25T12:55:09.677Z,81.22
2023-03-25T12:58:27.518Z,80.11
2023-03-25T13:01:19.397Z,81.23
2023-03-25T13:04:34.736Z,82.23
2023-03-25T13:07:34.454Z,82.89
2023-03-25T13:10:30.825Z,83.05
2023-03-25T13:13:25.747Z,83.22
2023-03-25T13:16:17.858Z,82.56
2023-03-25T13:19:11.582Z,81.32
2023-03-25T13:22:04.686Z,81.60
2023-03-25T13:25:03.972Z,81.45
2023-03-25T13:27:52.065Z,82.22
2023-03-25T13:30:40.756Z,81.97
2023-03-25T13:33:35.270Z,81.15
2023-03-25T13:36:41.541Z,81.34
2023-03-25T13:40:17.358Z,78.81
2023-03-25T13:43:24.526Z,79.18
2023-03-25T13:46:20.370Z,79.41
2023-03-25T13:49:13.932Z,79.63
2023-03-25T13:51:59.562Z,80.27
2023-03-25T13:55:01.388Z,80.28
2023-03-25T13:58:23.645Z,80.33
2023-03-25T14:01:12.465Z,80.29
2023-03-25T14:04:19.091Z,80.33
2023-03-25T14:07:18.498Z,79.95
2023-03-25T14:10:55.534Z,80.44
2023-03-25T14:14:11.637Z,80.57
2023-03-25T14:17:00.160Z,80.40
2023-03-25T14:19:51.289Z,80.66
2023-03-25T14:22:43.769Z,81.18
2023-03-25T14:25:40.035Z,81.52
2023-03-25T14:28:43.827Z,81.87
2023-03-25T14:31:32.348Z,81.97
2023-03-25T14:34:25.971Z,82.65
2023-03-25T14:37:27.090Z,82.56
2023-03-25T14:40:58.872Z,82.60
2023-03-25T14:44:10.177Z,82.43
2023-03-25T14:47:20.805Z,82.43
2023-03-25T14:50:22.259Z,82.27
2023-03-25T14:53:13.771Z,81.95
2023-03-25T14:56:02.412Z,81.59
2023-03-25T14:58:53.264Z,81.08
2023-03-25T15:01:42.224Z,81.25
2023-03-25T15:04:33.199Z,81.10
2023-03-25T15:07:39.027Z,81.65
2023-03-25T15:10:34.533Z,81.65
2023-03-25T15:13:33.915Z,81.61
2023-03-25T15:16:39.553Z,81.15
2023-03-25T15:19:25.268Z,81.14
2023-03-25T15:22:19.557Z,81.04
2023-03-25T15:25:18.657Z,80.55
2023-03-25T15:28:42.560Z,80.08
2023-03-25T15:31:43.484Z,80.33
2023-03-25T15:34:56.546Z,79.96
2023-03-25T15:38:07.881Z,79.58
2023-03-25T15:41:15.870Z,79.75
2023-03-25T15:44:39.501Z,79.78
2023-03-25T15:47:39.623Z,79.59
2023-03-25T15:50:35.492Z,79.27
2023-03-25T15:53:41.913Z,79.64
2023-03-25T15:56:32.025Z,79.30
2023-03-25T15:59:17.985Z,79.82
2023-03-25T16:02:10.583Z,79.59
2023-03-25T16:04:57.077Z,79.23
2023-03-25T16:07:43.756Z,79.31
2023-03-25T16:10:33.224Z,79.38
2023-03-25T16:13:23.821Z,79.25
2023-03-25T16:16:13.248Z,79.36
2023-03-25T16:18:59.183Z,79.41
2023-03-25T16:21:51.662Z,79.31
2023-03-25T16:24:37.635Z,79.37
2023-03-25T16:27:30.719Z,78.73
2023-03-25T16:30:22.060Z,78.78
2023-03-25T16:33:07.956Z,78.19
2023-03-25T16:36:00.008Z,78.70
2023-03-25T16:38:45.862Z,78.47
2023-03-25T16:41:31.955Z,78.60
2023-03-25T16:44:22.163Z,78.50
2023-03-25T16:47:08.880Z,78.34
2023-03-25T16:49:56.223Z,78.80
2023-03-25T16:52:42.384Z,78.94
2023-03-25T16:56:02.769Z,78.90
2023-03-25T16:59:05.230Z,78.41
2023-03-25T17:01:56.959Z,78.29
2023-03-25T17:04:42.625Z,78.21
2023-03-25T17:07:29.050Z,78.23
2023-03-25T17:10:29.703Z,78.16
2023-03-25T17:13:32.024Z,78.14
2023-03-25T17:16:22.000Z,78.05
2023-03-25T17:19:08.039Z,77.48
2023-03-25T17:22:18.122Z,77.23
2023-03-25T17:25:26.343Z,77.35
2023-03-25T17:28:39.943Z,77.31
2023-03-25T17:31:39.973Z,77.41
2023-03-25T17:34:26.640Z,77.20
2023-03-25T17:37:13.886Z,77.63
2023-03-25T17:40:06.637Z,76.99
2023-03-25T17:42:56.374Z,77.22
2023-03-25T17:45:42.007Z,77.29
2023-03-25T17:48:28.537Z,76.80
2023-03-25T17:51:16.400Z,76.58
2023-03-25T17:54:02.398Z,76.62
2023-03-25T17:56:48.149Z,76.95
2023-03-25T17:59:34.074Z,77.07
2023-03-25T18:02:20.261Z,76.65
2023-03-25T18:05:07.696Z,77.31
2023-03-25T18:07:53.760Z,77.36
2023-03-25T18:10:40.647Z,76.96
2023-03-25T18:13:27.218Z,76.43
2023-03-25T18:16:12.576Z,76.65
2023-03-25T18:18:58.211Z,76.40
2023-03-25T18:21:44.416Z,76.75
2023-03-25T18:24:29.726Z,76.46
2023-03-25T18:27:16.171Z,75.90
2023-03-25T18:30:02.797Z,75.93
2023-03-25T18:32:48.435Z,75.75
2023-03-25T18:35:34.176Z,75.81
2023-03-25T18:38:24.743Z,75.37
2023-03-25T18:41:14.392Z,75.24
2023-03-25T18:43:59.854Z,75.69
2023-03-25T18:46:46.435Z,75.40
2023-03-25T18:49:31.912Z,75.62
2023-03-25T18:52:17.555Z,75.31
2023-03-25T18:55:03.241Z,75.68
2023-03-25T18:57:49.473Z,75.43
2023-03-25T19:00:40.197Z,75.35
2023-03-25T19:03:38.653Z,75.64
2023-03-25T19:06:24.388Z,75.83
2023-03-25T19:09:18.447Z,76.09
2023-03-25T19:12:04.650Z,76.30
2023-03-25T19:14:50.300Z,76.47
2023-03-25T19:17:35.819Z,76.98
2023-03-25T19:20:29.383Z,76.21
2023-03-25T19:23:16.456Z,76.51
2023-03-25T19:26:02.512Z,76.34
2023-03-25T19:28:47.987Z,76.60
2023-03-25T19:31:33.774Z,76.53
2023-03-25T19:34:22.061Z,76.65
2023-03-25T19:37:08.019Z,76.31
2023-03-25T19:39:54.933Z,76.21
2023-03-25T19:42:44.260Z,76.16
2023-03-25T19:45:33.001Z,76.49
2023-03-25T19:48:19.356Z,76.13
2023-03-25T19:51:06.534Z,76.47
2023-03-25T19:53:52.487Z,76.33
2023-03-25T19:56:38.267Z,76.34
2023-03-25T19:59:24.186Z,76.29
2023-03-25T20:02:10.992Z,76.04
2023-03-25T20:04:56.702Z,76.16
2023-03-25T20:07:44.034Z,76.13
2023-03-25T20:10:30.434Z,75.95
2023-03-25T20:13:16.086Z,75.41
2023-03-25T20:16:01.536Z,75.69
2023-03-25T20:18:47.196Z,75.34
2023-03-25T20:21:33.596Z,75.08
2023-03-25T20:24:19.309Z,75.33
2023-03-25T20:27:04.686Z,75.06
2023-03-25T20:29:50.028Z,75.33
2023-03-25T20:32:41.301Z,75.48
2023-03-25T20:35:29.265Z,75.79
2023-03-25T20:38:14.689Z,75.40
2023-03-25T20:41:00.735Z,75.46
2023-03-25T20:43:46.686Z,75.17
2023-03-25T20:46:32.486Z,75.25
2023-03-25T20:49:19.908Z,75.27
2023-03-25T20:52:06.637Z,75.34
2023-03-25T20:54:53.187Z,75.52
2023-03-25T20:57:39.486Z,75.35
2023-03-25T21:00:24.801Z,75.69
2023-03-25T21:03:10.919Z,76.25
2023-03-25T21:06:07.469Z,76.18
2023-03-25T21:09:02.997Z,75.85
2023-03-25T21:11:52.518Z,76.04
2023-03-25T21:14:38.385Z,76.21
2023-03-25T21:17:23.827Z,76.01
2023-03-25T21:20:10.323Z,76.31
2023-03-25T21:22:57.530Z,76.43
2023-03-25T21:25:43.261Z,76.63
2023-03-25T21:28:31.340Z,76.46
2023-03-25T21:31:21.564Z,76.07
2023-03-25T21:34:07.373Z,75.97
2023-03-25T21:36:53.135Z,76.29
2023-03-25T21:39:38.692Z,75.92
2023-03-25T21:42:24.037Z,76.28
2023-03-25T21:45:11.499Z,75.95
2023-03-25T21:47:57.104Z,75.16
2023-03-25T21:50:46.572Z,75.32
2023-03-25T21:53:32.361Z,75.63
2023-03-25T21:56:20.509Z,75.23
2023-03-25T21:59:06.002Z,75.45
2023-03-25T22:01:53.307Z,75.45
2023-03-25T22:04:39.058Z,75.25
2023-03-25T22:07:24.390Z,75.44
2023-03-25T22:10:10.508Z,75.36
2023-03-25T22:12:56.143Z,75.72
2023-03-25T22:15:41.330Z,75.79
2023-03-25T22:18:27.267Z,75.79
2023-03-25T22:21:14.293Z,75.51
2023-03-25T22:24:02.024Z,75.68
2023-03-25T22:26:47.458Z,75.99
2023-03-25T22:29:33.735Z,75.56
2023-03-25T22:32:19.278Z,75.43
2023-03-25T22:35:05.327Z,75.35
2023-03-25T22:37:52.714Z,75.01
2023-03-25T22:40:38.207Z,74.94
2023-03-25T22:43:23.732Z,75.12
2023-03-25T22:46:10.472Z,75.32
2023-03-25T22:48:56.320Z,75.59
2023-03-25T22:51:42.279Z,75.83
2023-03-25T22:54:27.991Z,75.93
2023-03-25T22:57:13.644Z,76.16
2023-03-25T22:59:59.314Z,76.11
2023-03-25T23:02:47.040Z,76.45
2023-03-25T23:05:34.257Z,75.74
2023-03-25T23:08:21.400Z,75.89
2023-03-25T23:11:17.222Z,76.12
2023-03-25T23:14:09.412Z,76.13
2023-03-25T23:16:54.871Z,76.58
2023-03-25T23:19:40.593Z,76.16
2023-03-25T23:22:25.975Z,76.25
2023-03-25T23:25:11.606Z,75.75
2023-03-25T23:27:58.239Z,75.76
2023-03-25T23:30:47.442Z,76.08
2023-03-25T23:33:34.452Z,75.06
2023-03-25T23:36:20.777Z,75.35
2023-03-25T23:39:10.394Z,75.25
2023-03-25T23:41:56.488Z,74.93
2023-03-25T23:44:41.869Z,74.34
2023-03-25T23:47:28.090Z,74.32
2023-03-25T23:50:18.441Z,73.92
2023-03-25T23:53:04.007Z,74.34
2023-03-25T23:55:53.294Z,74.18
2023-03-25T23:58:40.889Z,73.99
